createdAt,value
2022-08-24T00:00:55.625Z,17.4
2022-08-24T00:02:11.927Z,17.4
2022-08-24T00:03:28.212Z,17.5
2022-08-24T00:04:44.505Z,17.5
2022-08-24T00:06:00.809Z,17.5
2022-08-24T00:07:17.100Z,17.5
2022-08-24T00:08:33.401Z,17.5
2022-08-24T00:09:49.684Z,17.5
2022-08-24T00:11:05.983Z,17.5
2022-08-24T00:12:22.280Z,17.5
2022-08-24T00:13:37.585Z,17.5
2022-08-24T00:14:53.886Z,17.5
2022-08-24T00:16:10.170Z,17.5
2022-08-24T00:17:26.466Z,17.5
2022-08-24T00:18:42.775Z,17.5
2022-08-24T00:19:59.055Z,17.5
2022-08-24T00:21:15.351Z,17.5
2022-08-24T00:22:30.000Z,17.5
2022-08-24T00:23:45.984Z,17.4
2022-08-24T00:25:02.270Z,17.4
2022-08-24T00:26:17.599Z,17.4
2022-08-24T00:27:32.903Z,17.4
2022-08-24T00:28:49.201Z,17.4
2022-08-24T00:30:05.494Z,17.4
2022-08-24T00:31:21.789Z,17.4
2022-08-24T00:32:38.076Z,17.4
2022-08-24T00:33:54.372Z,17.4
2022-08-24T00:35:10.669Z,17.4
2022-08-24T00:36:26.961Z,17.4
2022-08-24T00:37:43.254Z,17.4
2022-08-24T00:38:59.538Z,17.4
2022-08-24T00:40:15.847Z,17.4
2022-08-24T00:41:32.129Z,17.4
2022-08-24T00:42:48.427Z,17.3
2022-08-24T00:44:03.742Z,17.4
2022-08-24T00:45:20.028Z,17.4
2022-08-24T00:46:36.335Z,17.4
2022-08-24T00:47:52.609Z,17.4
2022-08-24T00:49:08.909Z,17.4
2022-08-24T00:50:25.217Z,17.3
2022-08-24T00:51:41.498Z,17.3
2022-08-24T00:52:56.812Z,17.3
2022-08-24T00:54:12.135Z,17.3
2022-08-24T00:55:28.423Z,17.2
2022-08-24T00:56:44.722Z,17.2
2022-08-24T00:58:00.031Z,17.3
2022-08-24T00:59:15.343Z,17.2
2022-08-24T01:00:31.628Z,17.2
2022-08-24T01:01:47.934Z,17.2
2022-08-24T01:03:04.216Z,17.2
2022-08-24T01:04:20.525Z,17.2
2022-08-24T01:05:36.813Z,17.2
2022-08-24T01:06:53.098Z,17.1
2022-08-24T01:08:09.394Z,17.1
2022-08-24T01:09:25.702Z,17.1
2022-08-24T01:10:41.985Z,17.1
2022-08-24T01:11:58.273Z,17.1
2022-08-24T01:13:14.573Z,17.1
2022-08-24T01:14:30.876Z,17.1
2022-08-24T01:15:46.177Z,17.2
2022-08-24T01:17:02.481Z,17.2
2022-08-24T01:18:18.761Z,17.2
2022-08-24T01:19:35.051Z,17.2
2022-08-24T01:20:51.364Z,17.2
2022-08-24T01:22:07.657Z,17.2
2022-08-24T01:23:23.948Z,17.1
2022-08-24T01:24:39.265Z,17.1
2022-08-24T01:25:54.576Z,17.1
2022-08-24T01:27:10.863Z,17
2022-08-24T01:28:27.167Z,17
2022-08-24T01:29:43.458Z,17
2022-08-24T01:30:59.753Z,16.9
2022-08-24T01:32:16.033Z,16.9
2022-08-24T01:33:32.335Z,16.9
2022-08-24T01:34:48.619Z,16.9
2022-08-24T01:36:04.914Z,16.9
2022-08-24T01:37:21.215Z,16.8
2022-08-24T01:38:37.499Z,16.8
2022-08-24T01:39:53.810Z,16.8
2022-08-24T01:41:10.099Z,16.8
2022-08-24T01:42:25.416Z,16.8
2022-08-24T01:43:41.710Z,16.7
2022-08-24T01:44:58.002Z,16.7
2022-08-24T01:46:14.295Z,16.7
2022-08-24T01:47:30.592Z,16.7
2022-08-24T01:48:46.882Z,16.7
2022-08-24T01:50:03.168Z,16.7
2022-08-24T01:51:18.484Z,16.7
2022-08-24T01:52:33.788Z,16.6
2022-08-24T01:53:49.111Z,16.6
2022-08-24T01:55:04.423Z,16.6
2022-08-24T01:56:20.718Z,16.6
2022-08-24T01:57:36.027Z,16.5
2022-08-24T01:58:51.332Z,16.5
2022-08-24T02:00:07.632Z,16.5
2022-08-24T02:01:23.937Z,16.4
2022-08-24T02:02:40.230Z,16.4
2022-08-24T02:03:56.513Z,16.4
2022-08-24T02:05:12.818Z,16.4
2022-08-24T02:06:29.111Z,16.4
2022-08-24T02:07:45.391Z,16.3
2022-08-24T02:09:01.700Z,16.4
2022-08-24T02:10:17.978Z,16.4
2022-08-24T02:11:34.285Z,16.3
2022-08-24T02:12:50.569Z,16.4
2022-08-24T02:14:06.879Z,16.4
2022-08-24T02:15:22.179Z,16.4
2022-08-24T02:16:38.478Z,16.4
2022-08-24T02:17:54.773Z,16.4
2022-08-24T02:19:11.062Z,16.4
2022-08-24T02:20:27.359Z,16.4
2022-08-24T02:21:43.647Z,16.4
2022-08-24T02:22:59.946Z,16.4
2022-08-24T02:24:15.266Z,16.3
2022-08-24T02:25:30.567Z,16.4
2022-08-24T02:26:46.867Z,16.4
2022-08-24T02:28:02.172Z,16.3
2022-08-24T02:29:17.485Z,16.3
2022-08-24T02:30:33.773Z,16.4
2022-08-24T02:31:50.073Z,16.4
2022-08-24T02:33:06.374Z,16.4
2022-08-24T02:34:22.654Z,16.4
2022-08-24T02:35:38.953Z,16.4
2022-08-24T02:36:55.242Z,16.4
2022-08-24T02:38:11.539Z,16.4
2022-08-24T02:39:27.841Z,16.4
2022-08-24T02:40:44.137Z,16.4
2022-08-24T02:42:00.437Z,16.4
2022-08-24T02:43:16.722Z,16.4
2022-08-24T02:44:33.023Z,16.4
2022-08-24T02:45:48.319Z,16.4
2022-08-24T02:47:04.623Z,16.4
2022-08-24T02:48:19.933Z,16.3
2022-08-24T02:49:36.240Z,16.4
2022-08-24T02:50:52.521Z,16.3
2022-08-24T02:52:08.819Z,16.3
2022-08-24T02:53:25.104Z,16.3
2022-08-24T02:54:40.428Z,16.3
2022-08-24T02:55:55.743Z,16.3
2022-08-24T02:57:12.032Z,16.3
2022-08-24T02:58:27.357Z,16.3
2022-08-24T02:59:42.650Z,16.3
2022-08-24T03:00:58.954Z,16.3
2022-08-24T03:02:15.255Z,16.2
2022-08-24T03:03:31.539Z,16.3
2022-08-24T03:04:47.831Z,16.3
2022-08-24T03:06:04.116Z,16.3
2022-08-24T03:07:20.414Z,16.2
2022-08-24T03:08:36.706Z,16.2
2022-08-24T03:09:53.008Z,16.2
2022-08-24T03:11:09.302Z,16.2
2022-08-24T03:12:25.586Z,16.1
2022-08-24T03:13:41.886Z,16.1
2022-08-24T03:14:58.191Z,16.1
2022-08-24T03:16:13.499Z,16.1
2022-08-24T03:17:29.793Z,16.1
2022-08-24T03:18:46.083Z,16.1
2022-08-24T03:20:02.372Z,16.1
2022-08-24T03:21:18.676Z,16
2022-08-24T03:22:34.970Z,16
2022-08-24T03:23:51.260Z,16
2022-08-24T03:25:06.583Z,16
2022-08-24T03:26:21.875Z,16
2022-08-24T03:27:37.200Z,16
2022-08-24T03:28:52.519Z,16
2022-08-24T03:30:08.798Z,16
2022-08-24T03:31:25.100Z,16
2022-08-24T03:32:41.398Z,16
2022-08-24T03:33:57.686Z,16
2022-08-24T03:35:13.933Z,16
2022-08-24T03:36:30.214Z,16
2022-08-24T03:37:46.461Z,16
2022-08-24T03:39:02.709Z,15.9
2022-08-24T03:40:18.941Z,15.9
2022-08-24T03:41:35.253Z,15.9
2022-08-24T03:42:51.492Z,15.9
2022-08-24T03:45:24.028Z,15.9
2022-08-24T03:46:39.287Z,15.9
2022-08-24T03:47:55.548Z,15.8
2022-08-24T03:49:11.786Z,15.8
2022-08-24T03:50:28.027Z,15.8
2022-08-24T03:51:44.262Z,15.8
2022-08-24T03:53:00.491Z,15.8
2022-08-24T03:54:16.733Z,15.8
2022-08-24T03:55:32.002Z,15.8
2022-08-24T03:56:47.262Z,15.8
2022-08-24T03:58:03.490Z,15.8
2022-08-24T03:59:18.757Z,15.7
2022-08-24T04:00:34.016Z,15.7
2022-08-24T04:01:50.246Z,15.7
2022-08-24T04:03:06.499Z,15.6
2022-08-24T04:04:22.740Z,15.6
2022-08-24T04:05:38.967Z,15.6
2022-08-24T04:06:55.213Z,15.6
2022-08-24T04:08:11.456Z,15.6
2022-08-24T04:09:27.701Z,15.6
2022-08-24T04:10:43.929Z,15.6
2022-08-24T04:12:00.186Z,15.6
2022-08-24T04:13:16.417Z,15.6
2022-08-24T04:14:32.651Z,15.6
2022-08-24T04:15:48.899Z,15.6
2022-08-24T04:17:04.160Z,15.6
2022-08-24T04:18:20.391Z,15.5
2022-08-24T04:19:36.639Z,15.6
2022-08-24T04:20:52.866Z,15.6
2022-08-24T04:22:09.118Z,15.6
2022-08-24T04:23:25.346Z,15.6
2022-08-24T04:24:41.594Z,15.6
2022-08-24T04:25:56.848Z,15.6
2022-08-24T04:27:12.113Z,15.7
2022-08-24T04:28:27.372Z,15.7
2022-08-24T04:29:42.641Z,15.7
2022-08-24T04:30:58.863Z,15.7
2022-08-24T04:32:15.116Z,15.7
2022-08-24T04:33:31.350Z,15.7
2022-08-24T04:34:47.582Z,15.7
2022-08-24T04:36:03.822Z,15.7
2022-08-24T04:37:20.080Z,15.7
2022-08-24T04:38:36.319Z,15.7
2022-08-24T04:39:52.562Z,15.7
2022-08-24T04:41:08.798Z,15.8
2022-08-24T04:42:25.027Z,15.8
2022-08-24T04:43:41.266Z,15.8
2022-08-24T04:44:57.509Z,15.8
2022-08-24T04:46:12.766Z,15.8
2022-08-24T04:47:29.009Z,15.8
2022-08-24T04:48:45.253Z,15.9
2022-08-24T04:50:01.482Z,15.9
2022-08-24T04:51:17.732Z,15.9
2022-08-24T04:52:33.976Z,15.9
2022-08-24T04:53:50.210Z,15.9
2022-08-24T04:55:05.479Z,16
2022-08-24T04:56:20.000Z,16
2022-08-24T04:57:36.964Z,16
2022-08-24T04:58:53.210Z,16
2022-08-24T05:00:09.445Z,16
2022-08-24T05:01:25.679Z,16.1
2022-08-24T05:02:41.923Z,16.1
2022-08-24T05:03:58.166Z,16.1
2022-08-24T05:05:14.408Z,16.2
2022-08-24T05:06:30.636Z,16.2
2022-08-24T05:07:46.878Z,16.3
2022-08-24T05:09:03.129Z,16.4
2022-08-24T05:10:19.374Z,16.4
2022-08-24T05:11:35.611Z,16.5
2022-08-24T05:12:50.854Z,16.6
2022-08-24T05:14:07.107Z,16.6
2022-08-24T05:15:23.343Z,16.7
2022-08-24T05:16:39.586Z,16.7
2022-08-24T05:17:55.818Z,16.7
2022-08-24T05:19:12.069Z,16.7
2022-08-24T05:20:28.296Z,16.7
2022-08-24T05:21:43.559Z,16.7
2022-08-24T05:22:58.818Z,16.7
2022-08-24T05:24:15.066Z,16.7
2022-08-24T05:25:31.302Z,16.7
2022-08-24T05:26:47.546Z,16.7
2022-08-24T05:28:03.777Z,16.7
2022-08-24T05:29:20.020Z,16.8
2022-08-24T05:30:36.262Z,16.8
2022-08-24T05:31:52.498Z,16.8
2022-08-24T05:33:08.747Z,16.9
2022-08-24T05:34:24.977Z,17
2022-08-24T05:35:41.226Z,17.1
2022-08-24T05:36:57.459Z,17.2
2022-08-24T05:38:13.696Z,17.3
2022-08-24T05:39:28.958Z,17.3
2022-08-24T05:40:45.204Z,17.4
2022-08-24T05:42:01.441Z,17.5
2022-08-24T05:43:17.679Z,17.5
2022-08-24T05:44:33.924Z,17.6
2022-08-24T05:45:50.164Z,17.6
2022-08-24T05:47:06.407Z,17.6
2022-08-24T05:48:21.655Z,17.7
2022-08-24T05:49:36.926Z,17.7
2022-08-24T05:50:52.185Z,17.8
2022-08-24T05:52:07.429Z,17.8
2022-08-24T05:53:23.665Z,17.9
2022-08-24T05:54:39.908Z,18
2022-08-24T05:55:56.146Z,18
2022-08-24T05:57:12.390Z,18.1
2022-08-24T05:58:28.629Z,18.1
2022-08-24T05:59:44.886Z,18.2
2022-08-24T06:01:01.122Z,18.2
2022-08-24T06:02:17.356Z,18.3
2022-08-24T06:03:33.587Z,18.4
2022-08-24T06:04:49.840Z,18.5
2022-08-24T06:06:06.073Z,18.6
2022-08-24T06:07:22.320Z,18.7
2022-08-24T06:08:37.580Z,18.8
2022-08-24T06:09:53.809Z,18.9
2022-08-24T06:11:10.049Z,19
2022-08-24T06:12:26.283Z,19
2022-08-24T06:13:42.535Z,19.1
2022-08-24T06:14:58.777Z,19.2
2022-08-24T06:16:15.003Z,19.3
2022-08-24T06:17:30.282Z,19.3
2022-08-24T06:18:45.531Z,19.2
2022-08-24T06:20:00.788Z,19.2
2022-08-24T06:21:16.043Z,19.2
2022-08-24T06:22:31.312Z,19.2
2022-08-24T06:23:46.000Z,19.2
2022-08-24T06:25:02.801Z,19.2
2022-08-24T06:26:19.044Z,19.4
2022-08-24T06:27:35.294Z,19.4
2022-08-24T06:28:51.525Z,19.5
2022-08-24T06:30:07.770Z,19.6
2022-08-24T06:31:24.004Z,19.8
2022-08-24T06:32:40.237Z,19.9
2022-08-24T06:33:56.492Z,20
2022-08-24T06:35:12.720Z,20.1
2022-08-24T06:36:28.976Z,20.3
2022-08-24T06:37:45.217Z,20.5
2022-08-24T06:39:01.446Z,20.5
2022-08-24T06:40:16.695Z,20.7
2022-08-24T06:41:32.952Z,20.8
2022-08-24T06:42:49.176Z,20.9
2022-08-24T06:44:05.424Z,21
2022-08-24T06:45:21.670Z,21
2022-08-24T06:46:37.903Z,21.1
2022-08-24T06:47:54.150Z,21.1
2022-08-24T06:49:09.395Z,21
2022-08-24T06:50:24.671Z,20.9
2022-08-24T06:51:40.905Z,20.9
2022-08-24T06:52:56.163Z,20.8
2022-08-24T06:54:11.426Z,20.8
2022-08-24T06:55:27.664Z,20.8
2022-08-24T06:56:43.000Z,20.9
2022-08-24T06:58:00.133Z,20.9
2022-08-24T06:59:16.385Z,21
2022-08-24T07:00:32.621Z,21.2
2022-08-24T07:01:48.851Z,21.3
2022-08-24T07:03:04.116Z,21.3
2022-08-24T07:05:36.591Z,21.4
2022-08-24T07:06:52.846Z,21.5
2022-08-24T07:08:09.083Z,21.6
2022-08-24T07:09:25.311Z,21.8
2022-08-24T07:10:41.563Z,22
2022-08-24T07:11:57.808Z,22.2
2022-08-24T07:13:14.035Z,22.4
2022-08-24T07:14:30.271Z,22.6
2022-08-24T07:15:46.508Z,22.8
2022-08-24T07:17:02.749Z,23
2022-08-24T07:18:18.995Z,23.1
2022-08-24T07:19:34.259Z,23.2
2022-08-24T07:20:49.519Z,23.2
2022-08-24T07:22:04.771Z,23.3
2022-08-24T07:23:20.041Z,23.4
2022-08-24T07:24:35.282Z,23.5
2022-08-24T07:25:51.531Z,23.6
2022-08-24T07:27:07.775Z,23.7
2022-08-24T07:28:24.014Z,23.8
2022-08-24T07:29:40.250Z,23.9
2022-08-24T07:30:56.480Z,24.1
2022-08-24T07:32:12.735Z,24.2
2022-08-24T07:33:28.974Z,24.3
2022-08-24T07:34:45.206Z,24.3
2022-08-24T07:36:01.458Z,24.1
2022-08-24T07:37:16.719Z,24.1
2022-08-24T07:38:31.959Z,24.1
2022-08-24T07:39:47.224Z,24.3
2022-08-24T07:41:02.490Z,24.4
2022-08-24T07:42:18.729Z,24.4
2022-08-24T07:43:34.968Z,24.4
2022-08-24T07:44:51.211Z,24.2
2022-08-24T07:46:07.453Z,24.2
2022-08-24T07:47:23.672Z,24.3
2022-08-24T07:48:39.925Z,24.4
2022-08-24T07:49:56.168Z,24.5
2022-08-24T07:51:12.406Z,24.6
2022-08-24T07:52:28.641Z,24.8
2022-08-24T07:53:44.886Z,24.7
2022-08-24T07:55:01.114Z,24.6
2022-08-24T07:56:17.354Z,24.6
2022-08-24T07:57:32.619Z,24.8
2022-08-24T07:58:48.860Z,25
2022-08-24T08:00:05.095Z,25.2
2022-08-24T08:01:21.328Z,25.2
2022-08-24T08:02:37.580Z,25.3
2022-08-24T08:03:53.811Z,25.4
2022-08-24T08:05:10.055Z,25.5
2022-08-24T08:06:25.327Z,25.8
2022-08-24T08:07:40.567Z,25.9
2022-08-24T08:08:55.847Z,26.1
2022-08-24T08:10:11.083Z,26.1
2022-08-24T08:11:27.339Z,26
2022-08-24T08:12:43.566Z,26.1
2022-08-24T08:13:59.804Z,26.2
2022-08-24T08:15:16.061Z,26.4
2022-08-24T08:16:32.325Z,26.4
2022-08-24T08:17:48.530Z,26.3
2022-08-24T08:19:04.783Z,26.3
2022-08-24T08:20:21.011Z,26.3
2022-08-24T08:21:37.284Z,26.4
2022-08-24T08:22:53.495Z,26.5
2022-08-24T08:24:09.728Z,26.6
2022-08-24T08:25:25.969Z,26.7
2022-08-24T08:26:41.236Z,26.8
2022-08-24T08:27:57.478Z,26.9
2022-08-24T08:29:13.702Z,27
2022-08-24T08:30:29.948Z,27.2
2022-08-24T08:31:46.187Z,27.1
2022-08-24T08:33:02.425Z,27.1
2022-08-24T08:34:18.680Z,26.9
2022-08-24T08:35:33.922Z,26.8
2022-08-24T08:36:49.197Z,26.6
2022-08-24T08:38:05.427Z,26.5
2022-08-24T08:39:21.661Z,26.4
2022-08-24T08:40:37.900Z,26.4
2022-08-24T08:41:54.138Z,26.5
2022-08-24T08:43:10.395Z,26.6
2022-08-24T08:44:26.624Z,26.7
2022-08-24T08:45:42.871Z,26.7
2022-08-24T08:46:59.105Z,26.9
2022-08-24T08:48:15.343Z,26.9
2022-08-24T08:49:31.595Z,27
2022-08-24T08:50:47.836Z,27.2
2022-08-24T08:52:04.059Z,27.4
2022-08-24T08:53:19.320Z,27.4
2022-08-24T08:54:35.563Z,27.4
2022-08-24T08:55:51.796Z,27.6
2022-08-24T08:57:08.040Z,27.6
2022-08-24T08:58:24.295Z,27.4
2022-08-24T08:59:40.518Z,27.3
2022-08-24T09:00:56.763Z,27.3
2022-08-24T09:02:12.019Z,27.3
2022-08-24T09:03:27.280Z,27.5
2022-08-24T09:04:42.537Z,27.6
2022-08-24T09:05:57.805Z,27.8
2022-08-24T09:07:14.072Z,28.1
2022-08-24T09:08:30.292Z,28.2
2022-08-24T09:09:46.528Z,28.2
2022-08-24T09:11:02.752Z,28.4
2022-08-24T09:12:18.995Z,28.5
2022-08-24T09:13:35.243Z,28.6
2022-08-24T09:14:51.474Z,28.6
2022-08-24T09:16:07.720Z,28.8
2022-08-24T09:17:23.969Z,28.9
2022-08-24T09:18:40.221Z,29
2022-08-24T09:19:56.439Z,29.1
2022-08-24T09:21:12.712Z,29.1
2022-08-24T09:22:27.941Z,29
2022-08-24T09:23:44.187Z,29
2022-08-24T09:25:00.410Z,29.1
2022-08-24T09:26:16.660Z,29.1
2022-08-24T09:27:32.901Z,29.3
2022-08-24T09:28:49.150Z,29.3
2022-08-24T09:30:05.375Z,29.4
2022-08-24T09:31:20.649Z,29.3
2022-08-24T09:32:35.927Z,29.4
2022-08-24T09:33:52.143Z,29.3
2022-08-24T09:35:08.372Z,29.1
2022-08-24T09:36:24.611Z,29.1
2022-08-24T09:37:40.863Z,29
2022-08-24T09:38:57.128Z,29
2022-08-24T09:40:13.334Z,28.8
2022-08-24T09:41:29.587Z,28.7
2022-08-24T09:42:45.817Z,28.6
2022-08-24T09:44:02.057Z,28.4
2022-08-24T09:45:18.329Z,28.3
2022-08-24T09:46:34.531Z,28.2
2022-08-24T09:47:50.773Z,28.2
2022-08-24T09:49:06.047Z,28.5
2022-08-24T09:50:22.278Z,28.8
2022-08-24T09:51:38.520Z,28.9
2022-08-24T09:52:54.749Z,29
2022-08-24T09:54:10.991Z,29
2022-08-24T09:55:27.260Z,28.8
2022-08-24T09:56:43.480Z,28.5
2022-08-24T09:57:58.737Z,28.4
2022-08-24T09:59:13.993Z,28.6
2022-08-24T10:00:30.227Z,28.8
2022-08-24T10:01:46.469Z,29
2022-08-24T10:03:02.707Z,29.1
2022-08-24T10:04:18.950Z,29.4
2022-08-24T10:05:35.197Z,29.5
2022-08-24T10:06:51.445Z,29.7
2022-08-24T10:08:07.673Z,29.6
2022-08-24T10:09:23.908Z,29.5
2022-08-24T10:10:40.154Z,29.4
2022-08-24T10:11:56.392Z,29.3
2022-08-24T10:13:12.640Z,29.3
2022-08-24T10:14:28.867Z,29.3
2022-08-24T10:15:44.144Z,29.5
2022-08-24T10:17:00.381Z,29.8
2022-08-24T10:18:16.604Z,29.7
2022-08-24T10:19:32.857Z,29.4
2022-08-24T10:20:49.085Z,29.2
2022-08-24T10:22:05.335Z,28.9
2022-08-24T10:23:21.574Z,28.9
2022-08-24T10:24:37.825Z,28.8
2022-08-24T10:25:54.052Z,28.5
2022-08-24T10:27:10.303Z,28.5
2022-08-24T10:28:26.530Z,28.5
2022-08-24T10:29:42.765Z,28.6
2022-08-24T10:30:59.042Z,28.5
2022-08-24T10:32:14.265Z,28.5
2022-08-24T10:33:30.510Z,28.6
2022-08-24T10:34:46.760Z,28.7
2022-08-24T10:36:02.983Z,28.6
2022-08-24T10:37:19.232Z,28.4
2022-08-24T10:38:35.474Z,28.4
2022-08-24T10:39:51.721Z,28.5
2022-08-24T10:41:07.991Z,28.6
2022-08-24T10:42:24.197Z,28.7
2022-08-24T10:43:40.432Z,28.8
2022-08-24T10:44:56.682Z,28.8
2022-08-24T10:46:12.908Z,28.8
2022-08-24T10:47:29.153Z,28.7
2022-08-24T10:48:44.411Z,28.7
2022-08-24T10:50:00.654Z,28.6
2022-08-24T10:51:16.893Z,28.6
2022-08-24T10:53:49.401Z,28.2
2022-08-24T10:55:05.614Z,27.9
2022-08-24T10:56:21.851Z,28
2022-08-24T10:57:38.096Z,27.8
2022-08-24T10:58:54.323Z,27.9
2022-08-24T11:00:10.578Z,28
2022-08-24T11:01:26.819Z,28
2022-08-24T11:02:43.043Z,28
2022-08-24T11:03:59.290Z,28.1
2022-08-24T11:06:30.785Z,27.7
2022-08-24T11:07:47.026Z,27.6
2022-08-24T11:09:03.279Z,27.6
2022-08-24T11:10:19.502Z,27.7
2022-08-24T11:11:35.777Z,27.9
2022-08-24T11:12:51.989Z,28
2022-08-24T11:14:08.227Z,27.9
2022-08-24T11:15:24.475Z,27.9
2022-08-24T11:16:40.737Z,27.8
2022-08-24T11:17:55.978Z,27.8
2022-08-24T11:19:12.238Z,27.7
2022-08-24T11:20:28.446Z,27.8
2022-08-24T11:21:44.690Z,27.8
2022-08-24T11:23:00.933Z,27.8
2022-08-24T11:24:17.170Z,27.9
2022-08-24T11:25:33.421Z,28
2022-08-24T11:26:49.680Z,28.1
2022-08-24T11:28:05.896Z,28.1
2022-08-24T11:29:22.127Z,28
2022-08-24T11:30:38.369Z,28
2022-08-24T11:31:54.620Z,28
2022-08-24T11:33:10.851Z,27.9
2022-08-24T11:34:26.110Z,28
2022-08-24T11:35:42.352Z,28
2022-08-24T11:36:58.585Z,28
2022-08-24T11:38:14.833Z,27.9
2022-08-24T11:39:31.070Z,27.8
2022-08-24T11:40:47.302Z,27.7
2022-08-24T11:42:03.544Z,27.7
2022-08-24T11:43:19.801Z,27.7
2022-08-24T11:44:36.027Z,27.6
2022-08-24T11:45:52.272Z,27.6
2022-08-24T11:47:08.506Z,27.5
2022-08-24T11:48:24.763Z,27.3
2022-08-24T11:49:40.996Z,27.3
2022-08-24T11:50:56.253Z,27.3
2022-08-24T11:52:12.491Z,27.3
2022-08-24T11:54:44.962Z,27.4
2022-08-24T11:56:01.220Z,27.5
2022-08-24T11:57:17.474Z,27.6
2022-08-24T11:58:33.684Z,27.7
2022-08-24T11:59:49.935Z,27.7
2022-08-24T12:01:06.174Z,27.7
2022-08-24T12:02:22.403Z,27.7
2022-08-24T12:03:38.690Z,27.8
2022-08-24T12:04:54.887Z,27.8
2022-08-24T12:06:11.136Z,27.8
2022-08-24T12:07:26.393Z,27.8
2022-08-24T12:08:42.623Z,27.8
2022-08-24T12:09:58.862Z,27.8
2022-08-24T12:11:15.117Z,27.9
2022-08-24T12:12:31.341Z,27.9
2022-08-24T12:13:47.584Z,28
2022-08-24T12:15:03.865Z,28.1
2022-08-24T12:16:20.074Z,28.1
2022-08-24T12:17:36.305Z,28.1
2022-08-24T12:18:52.558Z,28.1
2022-08-24T12:20:08.795Z,28.1
2022-08-24T12:21:25.026Z,28
2022-08-24T12:22:41.280Z,28
2022-08-24T12:23:56.520Z,28
2022-08-24T12:25:12.793Z,28
2022-08-24T12:26:29.000Z,27.9
2022-08-24T12:27:45.282Z,27.9
2022-08-24T12:29:01.483Z,27.8
2022-08-24T12:30:17.730Z,27.8
2022-08-24T12:31:33.975Z,27.8
2022-08-24T12:32:50.214Z,27.9
2022-08-24T12:34:06.458Z,27.8
2022-08-24T12:35:22.698Z,27.8
2022-08-24T12:36:38.924Z,27.9
2022-08-24T12:37:55.176Z,27.9
2022-08-24T12:39:11.447Z,27.9
2022-08-24T12:40:26.691Z,27.8
2022-08-24T12:41:42.909Z,27.8
2022-08-24T12:42:59.138Z,27.7
2022-08-24T12:44:15.380Z,27.7
2022-08-24T12:45:31.625Z,27.6
2022-08-24T12:46:47.862Z,27.6
2022-08-24T12:48:04.096Z,27.6
2022-08-24T12:49:20.355Z,27.8
2022-08-24T12:50:36.614Z,27.8
2022-08-24T12:51:52.817Z,27.9
2022-08-24T12:53:09.095Z,27.9
2022-08-24T12:54:25.299Z,28
2022-08-24T12:55:41.576Z,28
2022-08-24T12:56:56.800Z,28.1
2022-08-24T12:58:13.078Z,28.1
2022-08-24T12:59:29.294Z,28.1
2022-08-24T13:00:45.534Z,28.2
2022-08-24T13:02:01.771Z,28.2
2022-08-24T13:03:18.010Z,28
2022-08-24T13:04:34.241Z,27.9
2022-08-24T13:05:50.529Z,27.8
2022-08-24T13:07:06.733Z,27.9
2022-08-24T13:08:22.956Z,28
2022-08-24T13:09:39.198Z,28
2022-08-24T13:10:55.479Z,28.1
2022-08-24T13:12:11.694Z,28.1
2022-08-24T13:13:26.947Z,28.1
2022-08-24T13:14:43.185Z,28.1
2022-08-24T13:15:59.455Z,28.2
2022-08-24T13:17:15.669Z,28.2
2022-08-24T13:18:31.896Z,28.2
2022-08-24T13:19:48.169Z,28.2
2022-08-24T13:21:04.393Z,28.2
2022-08-24T13:22:20.630Z,28.2
2022-08-24T13:23:36.855Z,28.2
2022-08-24T13:24:53.095Z,28.2
2022-08-24T13:26:09.348Z,28.2
2022-08-24T13:27:25.576Z,28.2
2022-08-24T13:28:41.857Z,28.2
2022-08-24T13:29:57.090Z,28.2
2022-08-24T13:31:13.330Z,28.1
2022-08-24T13:32:29.569Z,28.1
2022-08-24T13:33:45.829Z,28.1
2022-08-24T13:35:02.048Z,28.1
2022-08-24T13:36:18.272Z,28
2022-08-24T13:37:34.518Z,28
2022-08-24T13:38:50.769Z,28
2022-08-24T13:40:07.011Z,27.9
2022-08-24T13:41:23.250Z,27.9
2022-08-24T13:42:39.513Z,27.9
2022-08-24T13:43:55.731Z,27.9
2022-08-24T13:45:11.967Z,27.9
2022-08-24T13:46:27.227Z,27.9
2022-08-24T13:47:43.462Z,27.9
2022-08-24T13:48:59.696Z,27.9
2022-08-24T13:50:15.946Z,27.9
2022-08-24T13:51:32.218Z,27.9
2022-08-24T13:52:48.424Z,27.9
2022-08-24T13:54:04.652Z,27.9
2022-08-24T13:55:20.906Z,27.9
2022-08-24T13:56:37.134Z,28
2022-08-24T13:57:53.379Z,28
2022-08-24T13:59:09.650Z,28.1
2022-08-24T14:00:25.905Z,28
2022-08-24T14:01:42.104Z,27.9
2022-08-24T14:02:57.362Z,27.9
2022-08-24T14:04:13.628Z,27.8
2022-08-24T14:05:29.839Z,27.8
2022-08-24T14:06:46.114Z,27.8
2022-08-24T14:08:02.314Z,27.7
2022-08-24T14:09:18.556Z,27.8
2022-08-24T14:10:34.809Z,27.7
2022-08-24T14:11:51.049Z,27.8
2022-08-24T14:13:07.287Z,27.7
2022-08-24T14:14:23.560Z,27.6
2022-08-24T14:15:39.759Z,27.4
2022-08-24T14:16:56.030Z,27.4
2022-08-24T14:18:12.238Z,27.3
2022-08-24T14:19:27.503Z,27.3
2022-08-24T14:20:43.745Z,27.4
2022-08-24T14:21:59.971Z,27.4
2022-08-24T14:23:16.218Z,27.5
2022-08-24T14:24:32.455Z,27.4
2022-08-24T14:25:48.692Z,27.4
2022-08-24T14:27:04.933Z,27.4
2022-08-24T14:28:21.179Z,27.4
2022-08-24T14:29:37.413Z,27.4
2022-08-24T14:30:53.651Z,27.4
2022-08-24T14:32:09.904Z,27.4
2022-08-24T14:33:26.144Z,27.4
2022-08-24T14:34:42.381Z,27.5
2022-08-24T14:35:57.644Z,27.4
2022-08-24T14:37:13.876Z,27.4
2022-08-24T14:38:30.120Z,27.5
2022-08-24T14:39:46.350Z,27.5
2022-08-24T14:41:02.596Z,27.6
2022-08-24T14:42:18.829Z,27.6
2022-08-24T14:43:35.111Z,27.7
2022-08-24T14:44:51.314Z,27.8
2022-08-24T14:46:07.560Z,27.8
2022-08-24T14:47:23.787Z,27.9
2022-08-24T14:48:40.035Z,28
2022-08-24T14:49:56.285Z,28
2022-08-24T14:51:12.516Z,28
2022-08-24T14:52:27.767Z,28.1
2022-08-24T14:53:44.014Z,28.1
2022-08-24T14:55:00.253Z,28.2
2022-08-24T14:56:16.495Z,28.2
2022-08-24T14:57:32.743Z,28.3
2022-08-24T14:58:48.971Z,28.3
2022-08-24T15:00:05.212Z,28.4
2022-08-24T15:01:21.457Z,28.5
2022-08-24T15:02:37.699Z,28.5
2022-08-24T15:03:53.942Z,28.6
2022-08-24T15:05:10.174Z,28.6
2022-08-24T15:06:26.416Z,28.6
2022-08-24T15:07:42.687Z,28.6
2022-08-24T15:08:57.907Z,28.6
2022-08-24T15:10:14.195Z,28.5
2022-08-24T15:11:30.432Z,28.5
2022-08-24T15:12:46.624Z,28.4
2022-08-24T15:14:02.867Z,28.4
2022-08-24T15:15:19.149Z,28.4
2022-08-24T15:16:35.394Z,28.3
2022-08-24T15:17:51.645Z,28.2
2022-08-24T15:19:07.840Z,28.2
2022-08-24T15:20:24.119Z,28.1
2022-08-24T15:21:40.305Z,28
2022-08-24T15:22:56.561Z,27.9
2022-08-24T15:24:12.801Z,27.9
2022-08-24T15:25:28.082Z,27.8
2022-08-24T15:28:00.537Z,27.8
2022-08-24T15:29:16.765Z,27.7
2022-08-24T15:30:33.046Z,27.7
2022-08-24T15:31:49.252Z,27.7
2022-08-24T15:33:04.516Z,27.7
2022-08-24T15:34:20.753Z,27.6
2022-08-24T15:35:37.003Z,27.5
2022-08-24T15:36:53.237Z,27.4
2022-08-24T15:38:09.472Z,27.3
2022-08-24T15:39:25.707Z,27.3
2022-08-24T15:40:41.963Z,27.3
2022-08-24T15:41:58.186Z,27.3
2022-08-24T15:43:14.426Z,27.3
2022-08-24T15:44:30.671Z,27.3
2022-08-24T15:45:46.918Z,27.4
2022-08-24T15:47:03.155Z,27.4
2022-08-24T15:48:19.389Z,27.5
2022-08-24T15:49:34.654Z,27.6
2022-08-24T15:50:50.895Z,27.7
2022-08-24T15:52:07.136Z,27.7
2022-08-24T15:53:23.372Z,27.8
2022-08-24T15:54:39.651Z,27.8
2022-08-24T15:55:55.848Z,27.8
2022-08-24T15:57:12.084Z,27.9
2022-08-24T15:58:28.341Z,27.9
2022-08-24T15:59:44.581Z,27.9
2022-08-24T16:01:00.817Z,27.9
2022-08-24T16:02:17.060Z,27.9
2022-08-24T16:03:33.286Z,27.9
2022-08-24T16:06:05.776Z,27.9
2022-08-24T16:07:21.030Z,27.8
2022-08-24T16:08:37.278Z,27.8
2022-08-24T16:09:53.504Z,27.8
2022-08-24T16:11:09.742Z,27.8
2022-08-24T16:12:25.984Z,27.8
2022-08-24T16:13:42.240Z,27.7
2022-08-24T16:14:58.463Z,27.7
2022-08-24T16:16:14.702Z,27.6
2022-08-24T16:17:30.948Z,27.6
2022-08-24T16:18:47.229Z,27.5
2022-08-24T16:20:03.422Z,27.4
2022-08-24T16:21:19.670Z,27.4
2022-08-24T16:22:35.917Z,27.4
2022-08-24T16:23:51.178Z,27.4
2022-08-24T16:25:07.418Z,27.3
2022-08-24T16:26:23.639Z,27.3
2022-08-24T16:27:39.889Z,27.3
2022-08-24T16:28:56.161Z,27.2
2022-08-24T16:30:12.361Z,27.2
2022-08-24T16:31:28.611Z,27.3
2022-08-24T16:32:44.852Z,27.2
2022-08-24T16:34:01.093Z,27.3
2022-08-24T16:35:17.321Z,27.2
2022-08-24T16:36:33.569Z,27.2
2022-08-24T16:37:49.812Z,27.2
2022-08-24T16:39:06.048Z,27.2
2022-08-24T16:41:37.583Z,27.1
2022-08-24T16:42:53.788Z,27.1
2022-08-24T16:44:10.018Z,27
2022-08-24T16:45:26.263Z,27
2022-08-24T16:46:42.542Z,26.9
2022-08-24T16:47:58.747Z,26.9
2022-08-24T16:49:14.978Z,26.8
2022-08-24T16:50:31.222Z,26.8
2022-08-24T16:51:47.476Z,26.8
2022-08-24T16:53:03.702Z,26.7
2022-08-24T16:54:19.940Z,26.7
2022-08-24T16:55:36.237Z,26.7
2022-08-24T16:56:51.454Z,26.6
2022-08-24T16:58:07.680Z,26.5
2022-08-24T16:59:23.931Z,26.5
2022-08-24T17:00:40.165Z,26.4
2022-08-24T17:01:56.450Z,26.4
2022-08-24T17:03:12.646Z,26.4
2022-08-24T17:04:28.877Z,26.4
2022-08-24T17:05:45.164Z,26.4
2022-08-24T17:07:01.370Z,26.4
2022-08-24T17:08:17.607Z,26.3
2022-08-24T17:10:50.081Z,26.3